createdAt,value
2018-04-28T00:00:25.762Z,82.70
2018-04-28T00:01:24.729Z,82.61
2018-04-28T00:02:24.705Z,82.80
2018-04-28T00:03:24.722Z,82.99
2018-04-28T00:04:24.694Z,82.70
2018-04-28T00:05:24.619Z,82.65
2018-04-28T00:06:24.618Z,82.99
2018-04-28T00:07:24.585Z,83.13
2018-04-28T00:08:24.558Z,83.65
2018-04-28T00:09:24.530Z,83.28
2018-04-28T00:10:24.521Z,83.65
2018-04-28T00:11:24.481Z,83.18
2018-04-28T00:12:24.464Z,83.22
2018-04-28T00:13:24.453Z,83.28
2018-04-28T00:14:24.412Z,82.90
2018-04-28T00:15:24.380Z,83.28
2018-04-28T00:16:24.360Z,83.75
2018-04-28T00:17:24.340Z,83.13
2018-04-28T00:18:24.301Z,83.09
2018-04-28T00:19:24.288Z,83.28
2018-04-28T00:20:26.277Z,82.90
2018-04-28T00:21:24.225Z,82.80
2018-04-28T00:22:24.201Z,82.93
2018-04-28T00:23:24.191Z,83.28
2018-04-28T00:24:24.152Z,82.99
2018-04-28T00:25:24.136Z,83.28
2018-04-28T00:26:24.095Z,83.09
2018-04-28T00:27:24.065Z,83.47
2018-04-28T00:28:24.055Z,83.75
2018-04-28T00:29:24.024Z,83.32
2018-04-28T00:30:24.014Z,83.37
2018-04-28T00:31:23.973Z,83.37
2018-04-28T00:32:23.951Z,83.85
2018-04-28T00:33:23.913Z,83.75
2018-04-28T00:34:24.899Z,83.94
2018-04-28T00:35:23.883Z,83.85
2018-04-28T00:36:23.873Z,83.85
2018-04-28T00:37:23.812Z,84.04
2018-04-28T00:38:23.817Z,83.65
2018-04-28T00:39:23.788Z,83.85
2018-04-28T00:40:24.753Z,84.13
2018-04-28T00:41:23.729Z,84.52
2018-04-28T00:42:23.699Z,84.04
2018-04-28T00:43:23.691Z,84.89
2018-04-28T00:44:23.641Z,84.04
2018-04-28T00:45:23.632Z,84.33
2018-04-28T00:46:23.621Z,84.42
2018-04-28T00:47:23.584Z,84.33
2018-04-28T00:48:23.552Z,84.33
2018-04-28T00:49:23.537Z,84.23
2018-04-28T00:50:23.500Z,84.13
2018-04-28T00:51:23.467Z,84.23
2018-04-28T00:52:24.475Z,84.33
2018-04-28T00:53:23.420Z,84.80
2018-04-28T00:54:23.388Z,84.89
2018-04-28T00:55:23.404Z,85.28
2018-04-28T00:56:23.346Z,84.52
2018-04-28T00:57:23.314Z,85.28
2018-04-28T00:58:23.308Z,84.99
2018-04-28T00:59:23.289Z,85.08
2018-04-28T01:00:23.246Z,85.75
2018-04-28T01:01:23.228Z,85.75
2018-04-28T01:02:23.213Z,85.37
2018-04-28T01:03:23.182Z,85.47
2018-04-28T01:04:23.159Z,85.28
2018-04-28T01:05:23.119Z,85.85
2018-04-28T01:06:23.081Z,85.56
2018-04-28T01:07:23.063Z,85.08
2018-04-28T01:08:25.061Z,84.99
2018-04-28T01:09:23.020Z,84.61
2018-04-28T01:10:22.993Z,83.75
2018-04-28T01:11:22.984Z,83.09
2018-04-28T01:12:22.962Z,83.32
2018-04-28T01:13:22.930Z,82.75
2018-04-28T01:14:22.891Z,82.46
2018-04-28T01:15:22.862Z,82.27
2018-04-28T01:16:22.865Z,81.89
2018-04-28T01:17:22.810Z,81.51
2018-04-28T01:18:22.818Z,81.13
2018-04-28T01:19:22.769Z,81.51
2018-04-28T01:20:23.755Z,81.03
2018-04-28T01:21:22.713Z,80.75
2018-04-28T01:22:24.721Z,80.46
2018-04-28T01:23:22.688Z,80.46
2018-04-28T01:24:22.700Z,79.60
2018-04-28T01:25:22.638Z,79.89
2018-04-28T01:26:23.595Z,79.93
2018-04-28T01:27:22.572Z,79.27
2018-04-28T01:28:22.543Z,78.88
2018-04-28T01:29:22.529Z,78.88
2018-04-28T01:30:22.501Z,78.59
2018-04-28T01:31:22.480Z,77.83
2018-04-28T01:32:22.440Z,77.93
2018-04-28T01:33:22.412Z,77.45
2018-04-28T01:34:22.403Z,77.26
2018-04-28T01:35:22.358Z,76.79
2018-04-28T01:36:22.342Z,76.79
2018-04-28T01:37:22.307Z,76.98
2018-04-28T01:38:22.293Z,76.69
2018-04-28T01:39:22.256Z,76.25
2018-04-28T01:40:22.230Z,76.25
2018-04-28T01:41:22.224Z,76.44
2018-04-28T01:42:22.186Z,75.68
2018-04-28T01:43:22.160Z,75.01
2018-04-28T01:44:22.172Z,75.68
2018-04-28T01:45:22.145Z,75.49
2018-04-28T01:46:22.091Z,75.20
2018-04-28T01:47:22.059Z,74.73
2018-04-28T01:48:22.041Z,74.92
2018-04-28T01:49:22.011Z,74.54
2018-04-28T01:50:21.990Z,75.01
2018-04-28T01:51:21.979Z,74.92
2018-04-28T01:52:21.927Z,75.11
2018-04-28T01:53:21.924Z,74.82
2018-04-28T01:54:21.879Z,74.82
2018-04-28T01:55:21.857Z,74.73
2018-04-28T01:56:21.833Z,74.44
2018-04-28T01:57:21.830Z,74.48
2018-04-28T01:58:21.802Z,74.44
2018-04-28T01:59:21.764Z,74.48
2018-04-28T02:00:21.771Z,74.57
2018-04-28T02:01:21.739Z,74.38
2018-04-28T02:02:21.701Z,74.19
2018-04-28T02:03:21.669Z,74.38
2018-04-28T02:04:22.629Z,74.10
2018-04-28T02:05:21.604Z,73.91
2018-04-28T02:06:21.577Z,73.62
2018-04-28T02:07:21.545Z,73.62
2018-04-28T02:08:22.543Z,73.24
2018-04-28T02:09:21.543Z,73.43
2018-04-28T02:10:21.521Z,73.33
2018-04-28T02:11:21.439Z,73.62
2018-04-28T02:12:21.446Z,73.52
2018-04-28T02:13:21.403Z,74.19
2018-04-28T02:14:21.392Z,74.01
2018-04-28T02:15:21.373Z,73.62
2018-04-28T02:16:21.329Z,73.72
2018-04-28T02:17:21.304Z,73.72
2018-04-28T02:18:21.278Z,73.72
2018-04-28T02:19:21.246Z,73.62
2018-04-28T02:20:21.226Z,73.91
2018-04-28T02:21:21.196Z,74.29
2018-04-28T02:22:25.670Z,73.72
2018-04-28T02:23:21.155Z,73.91
2018-04-28T02:24:21.124Z,74.29
2018-04-28T02:25:21.117Z,74.48
2018-04-28T02:26:21.076Z,74.29
2018-04-28T02:27:21.049Z,74.29
2018-04-28T02:28:21.028Z,74.77
2018-04-28T02:29:20.985Z,74.48
2018-04-28T02:30:21.976Z,74.19
2018-04-28T02:31:20.939Z,74.38
2018-04-28T02:32:20.926Z,74.19
2018-04-28T02:33:20.889Z,74.19
2018-04-28T02:34:20.877Z,74.67
2018-04-28T02:35:20.841Z,74.48
2018-04-28T02:36:20.827Z,74.38
2018-04-28T02:37:20.786Z,74.77
2018-04-28T02:38:20.769Z,74.77
2018-04-28T02:39:20.742Z,74.67
2018-04-28T02:40:21.778Z,75.05
2018-04-28T02:41:20.712Z,74.86
2018-04-28T02:42:20.683Z,74.86
2018-04-28T02:43:20.636Z,74.57
2018-04-28T02:44:20.610Z,74.63
2018-04-28T02:45:20.616Z,74.96
2018-04-28T02:46:21.617Z,75.05
2018-04-28T02:47:20.545Z,75.34
2018-04-28T02:48:20.513Z,75.20
2018-04-28T02:49:20.484Z,75.30
2018-04-28T02:50:20.501Z,75.49
2018-04-28T02:51:20.427Z,75.20
2018-04-28T02:52:20.415Z,75.40
2018-04-28T02:53:20.403Z,75.30
2018-04-28T02:54:21.360Z,76.16
2018-04-28T02:55:20.346Z,76.35
2018-04-28T02:56:21.325Z,75.87
2018-04-28T02:57:20.282Z,75.96
2018-04-28T02:58:20.276Z,76.25
2018-04-28T02:59:20.222Z,75.68
2018-04-28T03:00:20.227Z,76.16
2018-04-28T03:01:20.180Z,76.54
2018-04-28T03:02:20.152Z,76.35
2018-04-28T03:03:20.125Z,76.92
2018-04-28T03:04:20.113Z,76.73
2018-04-28T03:05:20.081Z,77.01
2018-04-28T03:06:20.056Z,77.20
2018-04-28T03:07:20.023Z,77.01
2018-04-28T03:08:20.004Z,77.45
2018-04-28T03:09:19.980Z,77.74
2018-04-28T03:10:19.949Z,77.49
2018-04-28T03:11:19.921Z,77.83
2018-04-28T03:12:19.925Z,78.03
2018-04-28T03:13:19.877Z,78.41
2018-04-28T03:14:19.843Z,78.59
2018-04-28T03:15:19.843Z,78.59
2018-04-28T03:16:20.807Z,78.88
2018-04-28T03:17:19.762Z,79.27
2018-04-28T03:18:19.760Z,79.46
2018-04-28T03:19:19.713Z,79.46
2018-04-28T03:20:19.703Z,79.36
2018-04-28T03:21:19.682Z,79.83
2018-04-28T03:22:20.579Z,79.55
2018-04-28T03:23:19.637Z,79.93
2018-04-28T03:24:19.604Z,79.74
2018-04-28T03:25:19.570Z,79.64
2018-04-28T03:26:19.545Z,79.55
2018-04-28T03:27:19.515Z,79.55
2018-04-28T03:28:19.486Z,79.80
2018-04-28T03:29:19.467Z,80.12
2018-04-28T03:30:19.434Z,79.74
2018-04-28T03:31:19.411Z,79.64
2018-04-28T03:32:19.398Z,80.27
2018-04-28T03:33:19.358Z,80.46
2018-04-28T03:34:19.340Z,80.46
2018-04-28T03:35:19.311Z,80.36
2018-04-28T03:36:19.295Z,80.65
2018-04-28T03:37:19.278Z,80.18
2018-04-28T03:38:19.247Z,80.46
2018-04-28T03:39:19.244Z,80.75
2018-04-28T03:40:19.188Z,81.23
2018-04-28T03:41:19.170Z,80.94
2018-04-28T03:42:19.136Z,80.65
2018-04-28T03:43:19.109Z,80.46
2018-04-28T03:44:19.090Z,81.03
2018-04-28T03:45:19.056Z,81.03
2018-04-28T03:46:19.031Z,81.13
2018-04-28T03:47:19.007Z,81.13
2018-04-28T03:48:18.981Z,81.23
2018-04-28T03:49:18.943Z,81.23
2018-04-28T03:50:18.935Z,81.03
2018-04-28T03:51:18.906Z,80.94
2018-04-28T03:52:18.899Z,81.26
2018-04-28T03:53:18.841Z,80.69
2018-04-28T03:54:18.826Z,80.98
2018-04-28T03:55:18.802Z,80.69
2018-04-28T03:56:18.790Z,80.60
2018-04-28T03:57:18.784Z,80.41
2018-04-28T03:58:18.724Z,80.12
2018-04-28T03:59:18.703Z,80.41
2018-04-28T04:00:18.688Z,80.50
2018-04-28T04:01:18.660Z,80.12
2018-04-28T04:02:18.619Z,79.74
2018-04-28T04:03:18.611Z,79.93
2018-04-28T04:04:18.581Z,79.64
2018-04-28T04:05:18.534Z,79.59
2018-04-28T04:06:18.508Z,79.17
2018-04-28T04:07:18.481Z,79.27
2018-04-28T04:08:18.476Z,79.40
2018-04-28T04:09:18.435Z,79.11
2018-04-28T04:10:19.430Z,78.92
2018-04-28T04:11:18.392Z,79.40
2018-04-28T04:12:18.379Z,79.02
2018-04-28T04:13:18.331Z,78.92
2018-04-28T04:14:18.335Z,78.83
2018-04-28T04:15:18.290Z,78.44
2018-04-28T04:16:18.280Z,78.44
2018-04-28T04:17:18.236Z,78.54
2018-04-28T04:18:19.272Z,78.35
2018-04-28T04:19:18.176Z,78.25
2018-04-28T04:20:18.159Z,78.25
2018-04-28T04:21:18.145Z,78.16
2018-04-28T04:22:18.105Z,78.35
2018-04-28T04:23:18.077Z,77.87
2018-04-28T04:24:18.046Z,77.78
2018-04-28T04:25:18.027Z,78.35
2018-04-28T04:26:17.999Z,77.49
2018-04-28T04:27:17.966Z,77.87
2018-04-28T04:28:17.949Z,77.59
2018-04-28T04:29:17.931Z,77.40
2018-04-28T04:30:17.906Z,77.69
2018-04-28T04:31:17.876Z,77.49
2018-04-28T04:32:17.840Z,77.40
2018-04-28T04:33:17.811Z,77.59
2018-04-28T04:34:17.804Z,77.20
2018-04-28T04:35:17.799Z,77.01
2018-04-28T04:36:17.758Z,76.54
2018-04-28T04:37:17.713Z,76.92
2018-04-28T04:38:17.698Z,76.96
2018-04-28T04:39:17.666Z,76.39
2018-04-28T04:40:17.643Z,76.57
2018-04-28T04:41:17.617Z,76.10
2018-04-28T04:42:18.588Z,76.10
2018-04-28T04:43:17.560Z,76.10
2018-04-28T04:44:17.546Z,76.20
2018-04-28T04:45:17.863Z,75.53
2018-04-28T04:46:17.499Z,75.72
2018-04-28T04:47:17.460Z,75.62
2018-04-28T04:48:17.433Z,75.62
2018-04-28T04:49:17.432Z,75.62
2018-04-28T04:50:17.386Z,75.05
2018-04-28T04:51:17.374Z,75.15
2018-04-28T04:52:17.358Z,75.15
2018-04-28T04:53:17.302Z,74.67
2018-04-28T04:54:17.289Z,75.15
2018-04-28T04:55:17.937Z,74.77
2018-04-28T04:56:17.381Z,75.34
2018-04-28T04:57:17.205Z,75.24
2018-04-28T04:58:17.190Z,75.24
2018-04-28T04:59:17.158Z,74.96
2018-04-28T05:00:17.133Z,74.96
2018-04-28T05:01:17.101Z,74.96
2018-04-28T05:02:17.095Z,75.15
2018-04-28T05:03:17.068Z,74.86
2018-04-28T05:04:17.027Z,74.57
2018-04-28T05:05:16.998Z,75.15
2018-04-28T05:06:16.973Z,74.77
2018-04-28T05:07:16.936Z,74.67
2018-04-28T05:08:17.943Z,74.80
2018-04-28T05:09:16.894Z,74.90
2018-04-28T05:10:16.872Z,74.77
2018-04-28T05:11:16.837Z,74.52
2018-04-28T05:12:16.841Z,74.42
2018-04-28T05:13:16.832Z,74.04
2018-04-28T05:14:16.793Z,74.32
2018-04-28T05:15:16.745Z,73.66
2018-04-28T05:16:16.719Z,73.56
2018-04-28T05:17:16.706Z,73.28
2018-04-28T05:18:16.662Z,73.37
2018-04-28T05:19:16.648Z,73.28
2018-04-28T05:20:16.624Z,72.99
2018-04-28T05:21:16.579Z,73.08
2018-04-28T05:22:16.559Z,73.22
2018-04-28T05:23:16.531Z,72.45
2018-04-28T05:24:16.508Z,73.03
2018-04-28T05:25:16.478Z,72.45
2018-04-28T05:26:16.462Z,72.17
2018-04-28T05:27:16.426Z,72.17
2018-04-28T05:28:16.407Z,72.07
2018-04-28T05:29:16.376Z,70.83
2018-04-28T05:30:16.370Z,71.31
2018-04-28T05:31:16.331Z,70.73
2018-04-28T05:32:16.332Z,71.21
2018-04-28T05:33:16.292Z,71.02
2018-04-28T05:34:16.254Z,70.54
2018-04-28T05:35:16.227Z,70.16
2018-04-28T05:36:16.215Z,70.64
2018-04-28T05:37:16.172Z,70.39
2018-04-28T05:38:16.159Z,69.91
2018-04-28T05:39:16.115Z,70.29
2018-04-28T05:40:16.106Z,70.39
2018-04-28T05:41:16.084Z,70.29
2018-04-28T05:42:16.061Z,69.53
2018-04-28T05:43:16.031Z,69.62
2018-04-28T05:44:17.005Z,69.43
2018-04-28T05:45:15.986Z,69.62
2018-04-28T05:46:15.948Z,69.72
2018-04-28T05:47:15.930Z,69.15
2018-04-28T05:48:15.906Z,69.34
2018-04-28T05:49:15.870Z,68.38
2018-04-28T05:50:15.859Z,68.32
2018-04-28T05:51:15.831Z,68.32
2018-04-28T05:52:15.800Z,68.61
2018-04-28T05:53:15.808Z,68.13
2018-04-28T05:54:16.738Z,68.41
2018-04-28T05:55:15.701Z,68.23
2018-04-28T05:56:15.708Z,68.13
2018-04-28T05:57:15.664Z,68.04
2018-04-28T05:58:15.644Z,67.75
2018-04-28T05:59:15.624Z,68.04
2018-04-28T06:00:15.589Z,67.75
2018-04-28T06:01:15.577Z,67.55
2018-04-28T06:02:16.535Z,67.94
2018-04-28T06:03:15.515Z,68.23
2018-04-28T06:04:15.480Z,67.94
2018-04-28T06:05:15.450Z,68.13
2018-04-28T06:06:16.447Z,67.65
2018-04-28T06:07:15.427Z,67.75
2018-04-28T06:08:15.415Z,67.55
2018-04-28T06:09:15.375Z,67.94
2018-04-28T06:10:15.375Z,67.84
2018-04-28T06:11:15.296Z,67.75
2018-04-28T06:12:15.280Z,68.26
2018-04-28T06:13:15.255Z,67.75
2018-04-28T06:14:15.232Z,67.84
2018-04-28T06:15:15.218Z,67.27
2018-04-28T06:16:17.185Z,67.40
2018-04-28T06:17:15.161Z,67.36
2018-04-28T06:18:15.153Z,67.36
2018-04-28T06:19:15.098Z,68.07
2018-04-28T06:20:15.117Z,67.88
2018-04-28T06:21:15.045Z,67.11
2018-04-28T06:22:16.029Z,67.59
2018-04-28T06:23:14.995Z,67.49
2018-04-28T06:24:14.984Z,65.97
2018-04-28T06:25:14.941Z,66.06
2018-04-28T06:26:14.931Z,66.25
2018-04-28T06:27:14.891Z,65.58
2018-04-28T06:28:19.754Z,65.30
2018-04-28T06:29:14.832Z,65.20
2018-04-28T06:30:14.821Z,65.30
2018-04-28T06:31:14.807Z,65.01
2018-04-28T06:32:15.768Z,64.62
2018-04-28T06:33:14.751Z,64.53
2018-04-28T06:34:15.719Z,64.72
2018-04-28T06:35:14.696Z,64.91
2018-04-28T06:36:14.698Z,64.72
2018-04-28T06:37:14.623Z,65.58
2018-04-28T06:38:14.631Z,65.39
2018-04-28T06:39:14.591Z,64.91
2018-04-28T06:40:14.593Z,65.11
2018-04-28T06:41:14.580Z,65.58
2018-04-28T06:42:14.524Z,65.39
2018-04-28T06:43:14.487Z,65.20
2018-04-28T06:44:14.468Z,64.82
2018-04-28T06:45:14.443Z,65.30
2018-04-28T06:46:14.408Z,65.01
2018-04-28T06:47:14.381Z,64.53
2018-04-28T06:48:15.361Z,65.58
2018-04-28T06:49:14.370Z,65.39
2018-04-28T06:50:14.300Z,64.43
2018-04-28T06:51:14.276Z,64.43
2018-04-28T06:52:14.284Z,64.37
2018-04-28T06:53:14.258Z,64.09
2018-04-28T06:54:14.211Z,63.70
2018-04-28T06:55:14.174Z,63.89
2018-04-28T06:56:14.146Z,64.18
2018-04-28T06:57:14.124Z,64.18
2018-04-28T06:58:14.092Z,64.09
2018-04-28T06:59:14.055Z,63.89
2018-04-28T07:00:14.043Z,63.42
2018-04-28T07:01:14.014Z,63.60
2018-04-28T07:02:14.007Z,62.84
2018-04-28T07:03:13.964Z,63.03
2018-04-28T07:04:13.933Z,63.60
2018-04-28T07:05:13.913Z,63.13
2018-04-28T07:06:13.941Z,63.60
2018-04-28T07:07:13.893Z,63.32
2018-04-28T07:08:13.944Z,63.70
2018-04-28T07:09:13.808Z,64.37
2018-04-28T07:10:13.853Z,64.37
2018-04-28T07:11:13.778Z,64.37
2018-04-28T07:12:13.816Z,64.56
2018-04-28T07:13:13.704Z,64.18
2018-04-28T07:14:13.811Z,63.80
2018-04-28T07:15:13.646Z,64.28
2018-04-28T07:16:13.703Z,64.09
2018-04-28T07:17:13.609Z,64.22
2018-04-28T07:18:13.628Z,63.73
2018-04-28T07:19:13.565Z,63.35
2018-04-28T07:20:13.609Z,63.93
2018-04-28T07:21:13.491Z,63.45
2018-04-28T07:22:13.536Z,61.94
2018-04-28T07:23:13.441Z,61.44
2018-04-28T07:24:13.445Z,62.04
2018-04-28T07:25:13.393Z,61.57
2018-04-28T07:26:13.468Z,60.89
2018-04-28T07:27:13.343Z,60.93
2018-04-28T07:28:13.374Z,60.83
2018-04-28T07:29:13.385Z,60.93
2018-04-28T07:30:13.282Z,59.39
2018-04-28T07:31:13.239Z,58.05
2018-04-28T07:32:13.312Z,57.67
2018-04-28T07:33:13.488Z,58.15
2018-04-28T07:34:13.164Z,58.94
2018-04-28T07:35:13.217Z,57.79
2018-04-28T07:36:13.113Z,56.32
2018-04-28T07:37:13.132Z,56.13
2018-04-28T07:38:13.055Z,55.85
2018-04-28T07:39:13.062Z,56.13
2018-04-28T07:40:13.003Z,56.61
2018-04-28T07:41:13.992Z,56.42
2018-04-28T07:42:13.114Z,56.04
2018-04-28T07:43:12.957Z,56.23
2018-04-28T07:44:12.916Z,56.74
2018-04-28T07:45:12.964Z,56.26
2018-04-28T07:46:12.870Z,56.07
2018-04-28T07:47:12.837Z,56.35
2018-04-28T07:48:12.842Z,56.45
2018-04-28T07:49:12.784Z,56.35
2018-04-28T07:50:12.826Z,56.26
2018-04-28T07:51:12.757Z,56.16
2018-04-28T07:52:12.711Z,55.68
2018-04-28T07:53:12.701Z,55.18
2018-04-28T07:54:12.652Z,55.75
2018-04-28T07:55:12.628Z,56.32
2018-04-28T07:56:12.593Z,56.32
2018-04-28T07:57:12.604Z,56.13
2018-04-28T07:58:12.554Z,57.09
2018-04-28T07:59:12.524Z,57.54
2018-04-28T08:00:12.581Z,57.45
2018-04-28T08:01:12.496Z,57.45
2018-04-28T08:02:12.451Z,57.64
2018-04-28T08:03:12.420Z,58.02
2018-04-28T08:04:12.387Z,58.37
2018-04-28T08:05:12.386Z,58.79
2018-04-28T08:06:12.369Z,58.79
2018-04-28T08:07:12.332Z,58.47
2018-04-28T08:08:12.322Z,58.98
2018-04-28T08:09:12.285Z,58.86
2018-04-28T08:10:12.245Z,58.88
2018-04-28T08:11:12.214Z,59.43
2018-04-28T08:12:12.195Z,59.33
2018-04-28T08:13:12.212Z,58.86
2018-04-28T08:14:12.144Z,60.29
2018-04-28T08:15:12.203Z,59.72
2018-04-28T08:16:12.121Z,59.91
2018-04-28T08:17:12.075Z,59.62
2018-04-28T08:18:12.088Z,59.91
2018-04-28T08:19:12.019Z,60.38
2018-04-28T08:20:11.983Z,60.10
2018-04-28T08:21:11.958Z,59.52
2018-04-28T08:22:11.938Z,60.03
2018-04-28T08:23:11.909Z,59.36
2018-04-28T08:24:11.882Z,58.98
2018-04-28T08:25:11.872Z,58.50
2018-04-28T08:26:11.853Z,58.31
2018-04-28T08:27:11.817Z,58.22
2018-04-28T08:28:11.789Z,58.31
2018-04-28T08:29:11.765Z,58.91
2018-04-28T08:30:11.817Z,58.15
2018-04-28T08:31:11.703Z,57.57
2018-04-28T08:32:11.716Z,57.57
2018-04-28T08:33:11.691Z,57.67
2018-04-28T08:34:11.632Z,57.86
2018-04-28T08:35:11.649Z,57.95
2018-04-28T08:36:11.573Z,57.86
2018-04-28T08:37:11.616Z,56.90
2018-04-28T08:38:11.547Z,56.83
2018-04-28T08:39:11.510Z,57.41
2018-04-28T08:40:11.465Z,56.35
2018-04-28T08:41:11.446Z,56.64
2018-04-28T08:42:11.433Z,56.54
2018-04-28T08:43:11.411Z,56.45
2018-04-28T08:44:11.380Z,56.64
2018-04-28T08:45:11.348Z,56.35
2018-04-28T08:46:11.332Z,56.07
2018-04-28T08:47:11.295Z,56.45
2018-04-28T08:48:11.276Z,55.87
2018-04-28T08:49:11.271Z,56.16
2018-04-28T08:50:11.222Z,55.78
2018-04-28T08:51:11.281Z,56.54
2018-04-28T08:52:11.195Z,55.87
2018-04-28T08:53:11.141Z,55.13
2018-04-28T08:54:11.175Z,54.85
2018-04-28T08:55:11.109Z,55.33
2018-04-28T08:56:11.196Z,54.94
2018-04-28T08:57:11.436Z,55.16
2018-04-28T08:58:11.077Z,55.16
2018-04-28T08:59:10.990Z,53.72
2018-04-28T09:00:11.020Z,54.11
2018-04-28T09:01:10.968Z,53.53
2018-04-28T09:02:11.013Z,53.82
2018-04-28T09:03:10.979Z,54.49
2018-04-28T09:04:11.936Z,54.39
2018-04-28T09:05:10.836Z,53.82
2018-04-28T09:06:11.894Z,53.75
2018-04-28T09:07:10.782Z,52.95
2018-04-28T09:08:10.795Z,53.05
2018-04-28T09:09:10.736Z,53.44
2018-04-28T09:10:12.777Z,52.95
2018-04-28T09:11:10.690Z,53.34
2018-04-28T09:12:10.707Z,52.95
2018-04-28T09:13:10.671Z,53.05
2018-04-28T09:14:10.732Z,53.72
2018-04-28T09:15:10.584Z,53.82
2018-04-28T09:16:10.628Z,52.76
2018-04-28T09:17:10.544Z,53.44
2018-04-28T09:18:10.553Z,53.72
2018-04-28T09:19:10.487Z,53.72
2018-04-28T09:20:12.525Z,53.24
2018-04-28T09:21:10.431Z,52.76
2018-04-28T09:22:10.484Z,53.15
2018-04-28T09:23:10.379Z,52.76
2018-04-28T09:24:10.384Z,53.53
2018-04-28T09:25:10.322Z,52.67
2018-04-28T09:26:10.454Z,52.00
2018-04-28T09:27:10.271Z,52.09
2018-04-28T09:28:10.298Z,52.57
2018-04-28T09:29:10.227Z,53.24
2018-04-28T09:30:11.243Z,52.86
2018-04-28T09:31:10.182Z,53.63
2018-04-28T09:32:12.198Z,54.58
2018-04-28T09:33:10.149Z,53.82
2018-04-28T09:34:10.136Z,53.24
2018-04-28T09:35:10.079Z,53.53
2018-04-28T09:36:10.187Z,53.53
2018-04-28T09:37:10.032Z,53.63
2018-04-28T09:38:12.136Z,54.58
2018-04-28T09:39:09.974Z,53.91
2018-04-28T09:40:21.884Z,53.63
2018-04-28T09:41:09.931Z,53.91
2018-04-28T09:42:09.994Z,54.68
2018-04-28T09:43:09.881Z,52.89
2018-04-28T09:44:10.924Z,52.89
2018-04-28T09:45:09.832Z,52.69
2018-04-28T09:46:14.827Z,52.60
2018-04-28T09:47:09.785Z,52.38
2018-04-28T09:48:10.855Z,52.95
2018-04-28T09:49:09.728Z,53.72
2018-04-28T09:50:16.296Z,53.05
2018-04-28T09:51:09.682Z,53.72
2018-04-28T09:52:14.371Z,53.82
2018-04-28T09:53:09.656Z,54.11
2018-04-28T09:54:15.311Z,54.11
2018-04-28T09:55:09.583Z,54.30
2018-04-28T09:56:11.629Z,54.21
2018-04-28T09:57:09.539Z,53.72
2018-04-28T09:58:10.625Z,53.91
2018-04-28T09:59:09.477Z,54.21
2018-04-28T10:00:09.536Z,54.66
2018-04-28T10:01:09.442Z,54.46
2018-04-28T10:02:14.328Z,54.66
2018-04-28T10:03:09.381Z,54.66
2018-04-28T10:04:09.433Z,54.17
2018-04-28T10:05:09.329Z,54.56
2018-04-28T10:06:09.340Z,55.52
2018-04-28T10:07:09.278Z,55.16
2018-04-28T10:08:09.261Z,54.21
2018-04-28T10:09:09.259Z,54.68
2018-04-28T10:10:09.205Z,54.68
2018-04-28T10:11:11.211Z,54.49
2018-04-28T10:12:09.147Z,54.21
2018-04-28T10:13:14.821Z,54.58
2018-04-28T10:14:09.145Z,54.21
2018-04-28T10:15:11.151Z,53.91
2018-04-28T10:16:09.101Z,53.91
2018-04-28T10:17:09.039Z,54.58
2018-04-28T10:18:09.304Z,54.56
2018-04-28T10:19:08.975Z,55.35
2018-04-28T10:20:08.991Z,54.66
2018-04-28T10:21:08.948Z,54.27
2018-04-28T10:22:08.904Z,54.56
2018-04-28T10:23:08.976Z,54.85
2018-04-28T10:24:08.855Z,54.75
2018-04-28T10:25:08.894Z,55.13
2018-04-28T10:26:08.812Z,55.90
2018-04-28T10:27:08.901Z,55.52
2018-04-28T10:28:08.762Z,55.42
2018-04-28T10:29:08.840Z,55.71
2018-04-28T10:30:08.727Z,55.78
2018-04-28T10:31:08.726Z,56.64
2018-04-28T10:32:08.655Z,56.76
2018-04-28T10:33:08.730Z,56.76
2018-04-28T10:34:08.602Z,56.76
2018-04-28T10:35:08.650Z,56.67
2018-04-28T10:36:08.587Z,56.19
2018-04-28T10:37:08.573Z,55.90
2018-04-28T10:38:08.506Z,55.42
2018-04-28T10:39:08.578Z,55.52
2018-04-28T10:40:08.470Z,55.90
2018-04-28T10:41:08.493Z,55.23
2018-04-28T10:42:08.418Z,55.93
2018-04-28T10:43:08.398Z,55.16
2018-04-28T10:44:08.359Z,54.97
2018-04-28T10:45:08.410Z,54.49
2018-04-28T10:46:08.311Z,54.01
2018-04-28T10:47:08.297Z,54.39
2018-04-28T10:48:08.260Z,54.11
2018-04-28T10:49:08.341Z,54.49
2018-04-28T10:50:08.247Z,53.44
2018-04-28T10:51:08.249Z,52.95
2018-04-28T10:52:08.151Z,53.05
2018-04-28T10:53:08.156Z,53.63
2018-04-28T10:54:08.168Z,53.24
2018-04-28T10:55:08.174Z,52.86
2018-04-28T10:56:08.065Z,53.72
2018-04-28T10:57:08.078Z,53.82
2018-04-28T10:58:08.026Z,54.37
2018-04-28T10:59:08.102Z,54.85
2018-04-28T11:00:07.959Z,54.46
2018-04-28T11:01:08.005Z,54.75
2018-04-28T11:02:07.908Z,55.33
2018-04-28T11:03:07.916Z,54.94
2018-04-28T11:04:07.879Z,55.55
2018-04-28T11:05:07.943Z,55.35
2018-04-28T11:06:07.858Z,54.78
2018-04-28T11:07:07.841Z,55.26
2018-04-28T11:08:07.764Z,54.49
2018-04-28T11:09:07.856Z,54.88
2018-04-28T11:10:07.711Z,54.88
2018-04-28T11:11:07.774Z,55.16
2018-04-28T11:12:07.666Z,54.68
2018-04-28T11:13:07.684Z,53.82
2018-04-28T11:14:07.614Z,54.58
2018-04-28T11:15:08.611Z,54.88
2018-04-28T11:16:07.568Z,54.78
2018-04-28T11:17:08.628Z,54.58
2018-04-28T11:18:07.516Z,54.97
2018-04-28T11:19:07.518Z,54.01
2018-04-28T11:20:07.475Z,54.21
2018-04-28T11:21:07.527Z,54.71
2018-04-28T11:22:07.445Z,54.04
2018-04-28T11:23:08.459Z,53.66
2018-04-28T11:24:07.376Z,53.08
2018-04-28T11:25:07.453Z,52.34
2018-04-28T11:26:07.316Z,51.67
2018-04-28T11:27:07.375Z,51.35
2018-04-28T11:28:07.267Z,52.02
2018-04-28T11:29:07.381Z,51.93
2018-04-28T11:30:07.219Z,52.34
2018-04-28T11:31:07.293Z,52.40
2018-04-28T11:32:07.170Z,52.50
2018-04-28T11:33:07.207Z,51.64
2018-04-28T11:34:07.121Z,51.83
2018-04-28T11:35:07.112Z,52.02
2018-04-28T11:36:07.067Z,51.73
2018-04-28T11:37:07.154Z,52.79
2018-04-28T11:38:07.024Z,52.50
2018-04-28T11:39:07.049Z,52.02
2018-04-28T11:40:06.977Z,52.50
2018-04-28T11:41:07.056Z,52.76
2018-04-28T11:42:06.916Z,52.67
2018-04-28T11:43:06.965Z,52.76
2018-04-28T11:44:06.907Z,53.82
2018-04-28T11:45:06.984Z,53.72
2018-04-28T11:46:06.847Z,54.49
2018-04-28T11:47:06.908Z,54.49
2018-04-28T11:48:06.779Z,54.58
2018-04-28T11:49:06.802Z,54.13
2018-04-28T11:50:06.725Z,54.01
2018-04-28T11:51:06.810Z,53.91
2018-04-28T11:52:06.678Z,54.21
2018-04-28T11:53:06.741Z,54.11
2018-04-28T11:54:06.628Z,54.30
2018-04-28T11:55:06.672Z,54.68
2018-04-28T11:56:06.588Z,54.88
2018-04-28T11:57:06.657Z,55.35
2018-04-28T11:58:06.533Z,55.93
2018-04-28T11:59:06.615Z,54.94
2018-04-28T12:00:06.482Z,55.71
2018-04-28T12:01:06.577Z,56.38
2018-04-28T12:02:06.454Z,56.38
2018-04-28T12:03:06.489Z,56.26
2018-04-28T12:04:06.387Z,56.54
2018-04-28T12:05:07.479Z,56.16
2018-04-28T12:06:06.338Z,56.26
2018-04-28T12:07:06.410Z,56.54
2018-04-28T12:08:06.280Z,56.45
2018-04-28T12:09:06.322Z,56.45
2018-04-28T12:10:06.235Z,56.45
2018-04-28T12:11:06.241Z,56.16
2018-04-28T12:12:06.184Z,56.74
2018-04-28T12:13:06.262Z,56.29
2018-04-28T12:14:06.133Z,56.48
2018-04-28T12:15:06.160Z,55.16
2018-04-28T12:16:06.096Z,55.35
2018-04-28T12:17:06.180Z,53.75
2018-04-28T12:18:06.048Z,52.69
2018-04-28T12:19:06.105Z,51.93
2018-04-28T12:20:06.066Z,52.98
2018-04-28T12:21:07.043Z,52.89
2018-04-28T12:22:05.948Z,52.69
2018-04-28T12:23:06.039Z,51.93
2018-04-28T12:24:05.890Z,52.22
2018-04-28T12:25:05.966Z,51.25
2018-04-28T12:26:05.835Z,51.83
2018-04-28T12:27:05.850Z,52.09
2018-04-28T12:28:05.807Z,51.90
2018-04-28T12:29:05.773Z,52.00
2018-04-28T12:30:05.828Z,51.81
2018-04-28T12:31:05.733Z,52.38
2018-04-28T12:32:05.752Z,52.48
2018-04-28T12:33:05.676Z,52.86
2018-04-28T12:34:05.658Z,52.76
2018-04-28T12:35:05.621Z,53.44
2018-04-28T12:36:05.720Z,53.56
2018-04-28T12:37:05.608Z,52.89
2018-04-28T12:38:05.588Z,52.89
2018-04-28T12:39:05.565Z,52.91
2018-04-28T12:40:05.501Z,52.72
2018-04-28T12:41:05.505Z,51.02
2018-04-28T12:42:05.444Z,49.57
2018-04-28T12:43:05.436Z,49.79
2018-04-28T12:44:05.404Z,49.87
2018-04-28T12:45:05.383Z,49.19
2018-04-28T12:46:05.364Z,49.57
2018-04-28T12:47:05.320Z,49.38
2018-04-28T12:48:05.300Z,50.54
2018-04-28T12:49:05.274Z,50.99
2018-04-28T12:50:05.250Z,50.90
2018-04-28T12:51:05.227Z,50.68
2018-04-28T12:52:05.216Z,52.02